Time;durP1;ratioP1;P1;durP2;ratioP2;P2;SDS_P1;SDS_P2;PMS_P1;PMS_P2;Temp;Humidity;BMP_temperature;BMP_pressure;BME280_temperature;BME280_humidity;BME280_pressure;Samples;Min_cycle;Max_cycle;Signal;HPM_P1;HPM_P2
2022/08/15 00:01:36;;;;;;;4.90;2.75;;;24.20;59.80;;;23.56;46.86;96370.50;4993662;28;20410;-73
2022/08/15 00:04:07;;;;;;;6.60;3.20;;;24.10;60.20;;;23.63;46.19;96368.72;4993271;28;20402;-73
2022/08/15 00:06:40;;;;;;;2.90;2.40;;;24.20;59.90;;;23.54;46.47;96368.94;4993771;28;20399;-73
2022/08/15 00:09:13;;;;;;;5.22;3.50;;;24.10;59.80;;;23.59;46.04;96367.09;4993666;28;20438;-73
2022/08/15 00:11:42;;;;;;;4.78;3.20;;;24.10;59.90;;;23.55;46.10;96356.22;4993625;28;20403;-73
2022/08/15 00:14:13;;;;;;;7.32;3.50;;;24.10;59.50;;;23.55;46.71;96353.53;4993004;28;20415;-73
2022/08/15 00:16:41;;;;;;;5.25;3.00;;;24.10;60.20;;;23.57;46.93;96355.88;4993625;28;20405;-73
2022/08/15 00:19:11;;;;;;;5.45;3.10;;;24.10;60.60;;;23.50;47.89;96348.44;4993410;28;20738;-73
2022/08/15 00:21:43;;;;;;;6.38;3.10;;;24.10;61.50;;;23.49;48.91;96349.56;4992914;28;20414;-73
2022/08/15 00:24:11;;;;;;;5.45;3.20;;;24.10;62.50;;;23.48;49.75;96356.88;4993111;28;20405;-73
2022/08/15 00:26:37;;;;;;;4.57;2.90;;;24.00;63.40;;;23.46;49.85;96353.72;4993426;28;20406;-73
2022/08/15 00:29:04;;;;;;;7.05;2.97;;;24.00;63.70;;;23.43;49.64;96349.06;4993392;28;20494;-73
2022/08/15 00:31:31;;;;;;;3.80;2.60;;;24.00;63.40;;;23.43;48.57;96345.56;4993137;28;20464;-73
2022/08/15 00:33:58;;;;;;;5.28;2.60;;;24.00;62.60;;;23.45;48.59;96354.09;4992675;28;20500;-73
2022/08/15 00:36:24;;;;;;;4.70;3.10;;;24.10;62.40;;;23.49;48.42;96363.06;4993198;28;20437;-73
2022/08/15 00:38:52;;;;;;;7.97;3.60;;;24.00;62.50;;;23.22;46.63;96386.47;4993102;28;20414;-73
2022/08/15 00:44:07;;;;;;;3.92;2.90;;;23.20;60.80;;;22.77;48.15;96384.41;4992525;28;20406;-73
2022/08/15 00:46:34;;;;;;;4.63;3.08;;;23.30;62.00;;;22.90;47.58;96390.44;4993069;28;20410;-73
2022/08/15 00:49:00;;;;;;;5.90;3.00;;;23.40;61.80;;;22.88;48.27;96390.81;4992998;28;20903;-73
2022/08/15 00:51:33;;;;;;;4.38;3.03;;;23.40;62.30;;;22.96;48.07;96386.31;4992823;28;20887;-73
2022/08/15 00:54:08;;;;;;;4.18;2.88;;;23.50;62.30;;;23.04;48.81;96385.34;4992282;28;20742;-73
2022/08/15 00:56:44;;;;;;;4.40;3.00;;;23.60;62.80;;;23.14;47.34;96384.78;4992905;28;20940;-73
2022/08/15 00:59:14;;;;;;;6.35;3.42;;;23.70;61.70;;;23.16;46.78;96385.19;4992769;28;20411;-73
2022/08/15 01:01:41;;;;;;;5.20;3.20;;;23.70;60.80;;;23.19;47.13;96392.56;4992659;28;20886;-73
2022/08/15 01:04:10;;;;;;;5.35;3.40;;;23.70;61.10;;;23.21;47.13;96381.44;4992273;28;20437;-73
2022/08/15 01:06:37;;;;;;;4.47;2.88;;;23.70;61.00;;;23.07;47.99;96382.72;4992591;28;20406;-73
2022/08/15 01:09:06;;;;;;;3.85;2.97;;;23.60;61.90;;;23.05;48.49;96379.59;4992486;28;20430;-73
2022/08/15 01:11:38;;;;;;;4.50;2.75;;;23.60;62.30;;;23.02;49.02;96372.19;4992417;28;20891;-73
2022/08/15 01:14:08;;;;;;;7.95;3.10;;;23.60;63.00;;;23.05;48.95;96376.88;4991864;28;20426;-73
2022/08/15 01:16:39;;;;;;;6.38;3.00;;;23.60;63.00;;;23.04;48.25;96379.94;4992459;28;20430;-73
2022/08/15 01:19:17;;;;;;;4.25;3.17;;;23.60;62.50;;;22.93;49.43;96360.06;4992541;28;20876;-73
2022/08/15 01:22:10;;;;;;;4.68;2.92;;;23.50;63.50;;;22.97;48.63;96371.69;4993230;23;20556;-72
2022/08/15 01:24:53;;;;;;;5.25;3.30;;;23.50;62.90;;;22.87;48.43;96374.97;4970609;28;20774;-72
2022/08/15 01:27:22;;;;;;;5.95;3.10;;;23.30;62.50;;;22.73;49.63;96380.81;4955482;28;20435;-72
2022/08/15 01:29:50;;;;;;;5.23;3.00;;;23.30;63.80;;;22.70;49.89;96386.94;4972743;28;20405;-72
2022/08/15 01:32:16;;;;;;;5.95;3.20;;;23.30;64.10;;;22.78;49.59;96380.56;4988806;28;20402;-72
2022/08/15 01:34:42;;;;;;;5.90;3.35;;;23.30;63.80;;;22.76;49.66;96383.63;4991487;28;20946;-72
2022/08/15 01:37:09;;;;;;;3.90;3.10;;;23.40;64.00;;;22.75;49.79;96384.75;4992092;28;20823;-72
2022/08/15 01:39:43;;;;;;;6.03;3.50;;;23.40;64.20;;;22.81;49.41;96379.06;4991943;28;20904;-72
2022/08/15 01:42:16;;;;;;;4.47;3.15;;;23.40;63.80;;;22.85;49.17;96369.94;4991828;28;20410;-72
2022/08/15 01:44:47;;;;;;;5.23;3.30;;;23.40;63.40;;;22.88;48.71;96381.91;4991374;28;20402;-72
2022/08/15 01:47:20;;;;;;;5.47;3.35;;;23.40;63.10;;;22.90;48.49;96376.97;4991830;28;20402;-72
2022/08/15 01:49:54;;;;;;;7.15;3.47;;;23.40;62.90;;;22.84;49.25;96384.56;4991870;28;20738;-72
2022/08/15 01:52:26;;;;;;;7.78;3.47;;;23.40;63.50;;;22.97;49.06;96385.19;4991644;28;20884;-72
2022/08/15 01:54:56;;;;;;;5.40;3.42;;;23.40;63.30;;;22.93;49.34;96395.16;4991338;28;20428;-72
2022/08/15 01:57:23;;;;;;;5.40;3.40;;;23.50;63.70;;;22.96;49.55;96395.22;4991699;28;20796;-72
2022/08/15 01:59:57;;;;;;;4.53;3.17;;;23.50;63.80;;;22.97;49.35;96394.06;4991635;28;20411;-72
2022/08/15 02:02:26;;;;;;;9.25;3.55;;;23.50;63.70;;;22.97;49.51;96399.47;4991496;28;20926;-72
2022/08/15 02:04:53;;;;;;;6.53;3.63;;;23.50;64.00;;;22.90;50.18;96393.16;4991081;28;20485;-72
2022/08/15 02:07:25;;;;;;;6.47;3.78;;;23.50;64.50;;;22.94;50.16;96394.78;4991547;28;20896;-72
2022/08/15 02:09:55;;;;;;;6.27;3.27;;;23.50;64.80;;;22.95;50.52;96379.38;4991482;28;20399;-72
2022/08/15 02:12:25;;;;;;;7.22;3.70;;;23.50;65.10;;;23.00;50.58;96393.38;4991431;28;20599;-72
2022/08/15 02:14:51;;;;;;;9.23;3.55;;;23.50;65.20;;;22.92;50.67;96388.19;4990874;28;20427;-72
2022/08/15 02:17:17;;;;;;;6.82;3.55;;;23.40;65.20;;;22.89;50.93;96384.28;4991444;28;20425;-72
2022/08/15 02:19:46;;;;;;;6.13;3.53;;;23.40;65.60;;;22.88;50.90;96381.91;4991383;28;20884;-72
2022/08/15 02:22:13;;;;;;;6.07;3.67;;;23.40;65.50;;;22.84;51.17;96379.16;4991092;28;20745;-72
2022/08/15 02:24:39;;;;;;;5.97;3.50;;;23.40;65.90;;;22.83;51.42;96376.81;4990851;28;20399;-72
2022/08/15 02:27:07;;;;;;;8.27;3.28;;;23.40;66.00;;;22.84;51.48;96373.78;4991308;28;20417;-72
2022/08/15 02:29:35;;;;;;;7.40;3.10;;;23.40;66.30;;;22.80;51.77;96364.03;4991266;28;20412;-72
2022/08/15 02:32:06;;;;;;;11.98;3.60;;;23.40;66.40;;;22.84;51.43;96371.06;4991143;28;20406;-72
2022/08/15 02:34:34;;;;;;;6.68;3.63;;;23.40;66.30;;;22.83;51.49;96379.50;4990646;28;20758;-72
2022/08/15 02:37:00;;;;;;;8.57;3.60;;;23.40;66.30;;;22.80;51.46;96374.81;4991087;28;20417;-71
2022/08/15 02:39:27;;;;;;;5.13;3.08;;;23.30;66.30;;;22.71;51.76;96374.97;4973792;28;20418;-72
2022/08/15 02:41:53;;;;;;;7.90;3.55;;;23.20;66.50;;;22.64;52.18;96375.63;4991033;28;20863;-72
2022/08/15 02:44:22;;;;;;;6.20;3.50;;;23.10;67.10;;;22.60;52.41;96374.78;4990291;28;20975;-72
2022/08/15 02:46:49;;;;;;;6.22;3.45;;;23.10;67.30;;;22.64;52.24;96381.00;4991063;28;20402;-72
2022/08/15 02:49:16;;;;;;;8.13;3.53;;;23.10;67.50;;;22.64;52.17;96388.31;4991029;28;21020;-72
2022/08/15 02:51:43;;;;;;;8.47;3.70;;;23.10;67.30;;;22.56;52.28;96390.09;4991050;28;20413;-72
2022/08/15 02:54:11;;;;;;;6.45;3.42;;;23.10;67.40;;;22.51;52.67;96384.97;4990536;28;20869;-72
2022/08/15 02:56:37;;;;;;;10.15;3.53;;;23.00;67.70;;;22.53;52.83;96384.63;4990862;28;20410;-72
2022/08/15 02:59:07;;;;;;;6.80;3.42;;;23.00;68.00;;;22.58;53.00;96385.13;4990980;28;20399;-72
2022/08/15 03:01:37;;;;;;;5.63;3.20;;;23.00;68.10;;;22.51;53.25;96392.28;4973287;28;20410;-72
2022/08/15 03:04:06;;;;;;;8.90;3.40;;;23.10;68.30;;;22.47;53.06;96389.53;4990428;28;20410;-72
2022/08/15 03:06:33;;;;;;;5.88;3.30;;;23.00;68.40;;;22.51;53.48;96393.06;4990821;28;20399;-72
2022/08/15 03:09:03;;;;;;;8.63;3.80;;;23.00;68.60;;;22.54;53.19;96399.69;4990774;28;20456;-72
2022/08/15 03:11:31;;;;;;;5.93;3.20;;;23.00;68.40;;;22.61;53.45;96392.53;4973291;28;20862;-72
2022/08/15 03:13:57;;;;;;;6.18;3.58;;;23.00;69.10;;;22.55;53.33;96387.75;4990231;28;20429;-72
2022/08/15 03:16:23;;;;;;;7.47;3.05;;;23.10;68.70;;;22.52;53.67;96394.63;4990886;28;20780;-72
2022/08/15 03:18:50;;;;;;;6.55;3.40;;;23.10;69.10;;;22.48;54.14;96398.41;4990854;28;20770;-72
2022/08/15 03:21:19;;;;;;;7.70;3.30;;;23.10;69.30;;;22.51;54.14;96400.38;4990503;28;20414;-71
2022/08/15 03:23:49;;;;;;;5.47;2.72;;;23.10;69.60;;;22.54;53.61;96389.69;4990268;28;20418;-72
2022/08/15 03:26:17;;;;;;;6.53;3.20;;;23.10;68.90;;;22.45;53.37;96393.69;4990659;28;20434;-72
2022/08/15 03:28:43;;;;;;;7.50;3.75;;;23.00;68.80;;;22.39;53.75;96402.06;4990749;28;20410;-72
2022/08/15 03:31:09;;;;;;;7.40;3.50;;;22.90;69.20;;;22.35;54.14;96397.72;4990658;28;20412;-72
2022/08/15 03:33:38;;;;;;;5.22;3.05;;;22.90;69.70;;;22.29;54.87;96399.13;4990072;28;20418;-71
2022/08/15 03:36:07;;;;;;;6.38;2.90;;;22.90;70.50;;;22.28;54.82;96405.63;4990591;28;20437;-71
2022/08/15 03:38:33;;;;;;;10.48;4.00;;;22.70;70.30;;;22.26;55.22;96402.50;4990600;28;20927;-72
2022/08/15 03:40:59;;;;;;;6.10;3.13;;;22.70;70.70;;;22.20;55.66;96399.28;4990371;28;20454;-71
2022/08/15 03:43:29;;;;;;;5.53;3.10;;;22.70;71.50;;;22.21;55.78;96405.47;4990136;28;20410;-72
2022/08/15 03:45:59;;;;;;;8.68;3.13;;;22.70;71.50;;;22.27;56.11;96404.84;4990588;28;20410;-72
2022/08/15 03:48:29;;;;;;;5.03;2.80;;;22.80;72.10;;;22.30;55.95;96395.28;4990507;28;20768;-72
2022/08/15 03:50:57;;;;;;;6.65;3.47;;;22.80;72.10;;;22.31;56.10;96394.16;4972958;28;20414;-71
2022/08/15 03:53:27;;;;;;;6.05;3.50;;;22.90;72.10;;;22.29;56.44;96396.41;4990010;28;20883;-71
2022/08/15 03:55:53;;;;;;;6.77;3.20;;;22.90;72.40;;;22.25;58.03;96396.31;4992476;28;20410;-72
2022/08/15 03:58:19;;;;;;;8.23;3.83;;;22.80;74.10;;;22.19;58.10;96403.13;4993919;28;20410;-72
2022/08/15 04:00:48;;;;;;;7.30;3.28;;;22.70;74.30;;;22.15;59.61;96402.25;4993783;28;20417;-72
2022/08/15 04:03:18;;;;;;;5.25;3.40;;;22.70;76.00;;;22.12;60.81;96405.66;4993389;28;20485;-72
2022/08/15 04:05:51;;;;;;;5.82;3.35;;;22.70;77.60;;;22.02;62.07;96402.72;4993861;28;20416;-72
2022/08/15 04:08:20;;;;;;;6.13;3.22;;;22.60;78.90;;;21.94;62.73;96404.44;4993709;28;20402;-72
2022/08/15 04:10:51;;;;;;;7.32;3.53;;;22.60;79.90;;;21.92;61.77;96398.59;4993533;28;20931;-72
2022/08/15 04:13:23;;;;;;;6.97;3.38;;;22.50;79.20;;;21.87;61.68;96393.47;4993124;28;20414;-72
2022/08/15 04:15:49;;;;;;;8.63;3.60;;;22.50;79.30;;;21.82;61.89;96401.78;4993505;28;20419;-72
2022/08/15 04:18:15;;;;;;;4.95;3.30;;;22.40;79.50;;;21.74;62.29;96406.22;4993467;28;20434;-72
2022/08/15 04:20:42;;;;;;;6.45;3.00;;;22.40;80.00;;;21.72;62.74;96402.34;4993268;28;20446;-72
2022/08/15 04:23:08;;;;;;;8.02;3.63;;;22.40;80.80;;;21.70;62.39;96401.88;4993154;28;20405;-72
2022/08/15 04:25:37;;;;;;;8.33;3.97;;;22.40;80.70;;;21.72;61.71;96410.41;4993268;28;20390;-72
2022/08/15 04:28:06;;;;;;;7.80;3.35;;;22.40;79.90;;;21.69;61.69;96401.09;4993410;28;20413;-72
2022/08/15 04:30:36;;;;;;;6.35;3.47;;;22.40;80.10;;;21.68;62.03;96406.81;4993185;28;20403;-72
2022/08/15 04:33:09;;;;;;;6.38;3.25;;;22.30;80.30;;;21.70;61.86;96416.13;4992819;28;20425;-72
2022/08/15 04:35:36;;;;;;;5.20;3.10;;;22.30;80.40;;;21.76;61.10;96408.56;4993091;28;20422;-72
2022/08/15 04:38:02;;;;;;;7.83;3.13;;;22.30;79.90;;;21.64;60.09;96414.84;4993196;28;20552;-72
2022/08/15 04:40:29;;;;;;;5.38;2.70;;;22.20;78.30;;;21.59;60.21;96423.16;4993097;28;20418;-72
2022/08/15 04:42:55;;;;;;;5.43;2.87;;;22.20;78.60;;;21.67;59.17;96424.13;4992658;28;20433;-72
2022/08/15 04:45:25;;;;;;;6.43;2.65;;;22.20;78.00;;;21.66;58.82;96431.41;4993010;28;20413;-71
2022/08/15 04:47:51;;;;;;;5.03;2.50;;;22.30;77.00;;;21.64;58.59;96425.59;4993008;28;20407;-72
2022/08/15 04:50:18;;;;;;;4.00;2.40;;;22.20;76.80;;;21.62;58.47;96436.72;4992855;28;20820;-72
2022/08/15 04:52:47;;;;;;;6.38;2.80;;;22.20;76.70;;;21.56;58.51;96426.53;4992742;28;20411;-71
2022/08/15 04:55:14;;;;;;;3.20;2.25;;;22.20;76.50;;;21.52;58.60;96418.34;4992600;28;20419;-71
2022/08/15 04:57:41;;;;;;;4.13;2.30;;;22.20;76.60;;;21.47;58.37;96418.63;4992795;28;20398;-71
2022/08/15 05:00:11;;;;;;;5.97;2.70;;;22.10;76.40;;;21.27;58.90;96430.38;4992828;28;20772;-71
2022/08/15 05:02:39;;;;;;;6.43;2.83;;;21.80;76.80;;;21.28;58.94;96420.38;4992676;28;20497;-71
2022/08/15 05:05:08;;;;;;;6.40;2.50;;;21.80;77.30;;;21.32;58.57;96418.59;4992445;28;20489;-71
2022/08/15 05:07:35;;;;;;;3.65;2.20;;;21.80;77.00;;;21.15;58.84;96423.09;4992513;28;20421;-71
2022/08/15 05:10:05;;;;;;;4.10;2.55;;;21.60;77.10;;;21.13;58.93;96430.72;4975012;28;20809;-70
2022/08/15 05:12:31;;;;;;;5.03;2.53;;;21.70;77.20;;;21.18;58.90;96429.75;4992248;28;20414;-71
2022/08/15 05:14:58;;;;;;;5.03;2.28;;;21.70;77.50;;;21.16;58.74;96429.25;4991792;28;20517;-71
2022/08/15 05:17:24;;;;;;;4.40;2.58;;;21.70;77.10;;;21.20;58.82;96424.81;4992440;28;20410;-71
2022/08/15 05:19:51;;;;;;;5.90;2.60;;;21.80;77.20;;;21.13;58.55;96419.97;4992354;28;20456;-71
2022/08/15 05:22:17;;;;;;;4.20;2.33;;;21.70;76.70;;;21.14;58.92;96423.44;4992189;28;20981;-71
2022/08/15 05:24:43;;;;;;;6.10;2.50;;;21.70;77.30;;;21.15;58.74;96428.47;4991820;28;20405;-71
2022/08/15 05:27:09;;;;;;;6.40;2.28;;;21.70;77.10;;;21.21;58.56;96424.44;4992330;28;20739;-71
2022/08/15 05:29:36;;;;;;;3.67;2.35;;;21.80;76.80;;;21.22;58.57;96420.63;4992190;28;20468;-71
2022/08/15 05:32:06;;;;;;;4.72;2.53;;;21.80;76.60;;;21.28;58.25;96421.16;4974607;28;20439;-71
2022/08/15 05:34:32;;;;;;;5.93;2.67;;;21.90;76.60;;;21.31;58.12;96414.31;4991571;28;20453;-71
2022/08/15 05:37:01;;;;;;;5.22;2.58;;;21.90;76.20;;;21.42;57.82;96423.47;4991985;28;20406;-71
2022/08/15 05:39:31;;;;;;;5.25;2.60;;;22.00;76.20;;;21.37;57.81;96418.31;4992031;28;20414;-71
2022/08/15 05:42:05;;;;;;;5.07;2.28;;;21.90;75.70;;;21.27;59.44;96416.16;4991937;28;20409;-71
2022/08/15 05:44:40;;;;;;;4.28;2.30;;;21.80;77.60;;;21.16;59.79;96418.50;4991428;28;20792;-71
2022/08/15 05:47:17;;;;;;;3.90;2.35;;;21.70;78.40;;;21.03;60.21;96417.00;4991965;28;20402;-71
2022/08/15 05:49:51;;;;;;;9.15;2.53;;;21.50;78.80;;;21.07;61.39;96409.78;4991827;28;20402;-71
2022/08/15 05:52:30;;;;;;;3.73;2.40;;;21.60;80.60;;;21.01;61.10;96408.47;4991578;28;20486;-71
2022/08/15 05:55:12;;;;;;;3.42;2.08;;;21.60;80.00;;;20.99;60.51;96405.31;4991202;28;20418;-71
2022/08/15 05:58:05;;;;;;;5.25;2.38;;;21.60;79.80;;;20.97;60.98;96408.38;4991626;28;20772;-71
2022/08/15 06:00:33;;;;;;;3.45;2.40;;;21.50;80.40;;;20.99;60.16;96402.63;4991525;28;20406;-71
2022/08/15 06:03:14;;;;;;;5.50;2.60;;;21.60;79.40;;;21.00;60.10;96390.75;4991306;28;20809;-71
2022/08/15 06:05:46;;;;;;;4.93;2.60;;;21.50;79.30;;;20.95;60.77;96388.31;4991438;28;20493;-70
2022/08/15 06:08:17;;;;;;;4.47;2.33;;;21.60;79.70;;;20.94;61.36;96379.47;4991485;28;20513;-71
2022/08/15 06:10:49;;;;;;;3.07;2.10;;;21.50;80.30;;;21.00;61.18;96383.47;4991460;28;20435;-71
2022/08/15 06:13:20;;;;;;;3.67;2.35;;;21.60;80.40;;;21.05;60.75;96385.91;4990946;28;20430;-71
2022/08/15 06:15:51;;;;;;;4.70;2.57;;;21.60;79.90;;;21.10;60.28;96398.34;4991389;28;20403;-71
2022/08/15 06:18:20;;;;;;;5.28;2.70;;;21.70;79.70;;;21.11;59.81;96422.22;4990871;28;20896;-71
2022/08/15 06:20:56;;;;;;;4.15;2.42;;;21.70;78.90;;;21.10;60.52;96422.56;4991174;28;20409;-71
2022/08/15 06:23:38;;;;;;;5.03;2.55;;;21.60;79.60;;;21.08;60.49;96424.81;4990942;28;20927;-71
2022/08/15 06:26:21;;;;;;;6.47;2.50;;;21.70;79.40;;;21.09;60.86;96437.13;4991279;28;20746;-71
2022/08/15 06:29:06;;;;;;;5.18;2.28;;;21.70;80.00;;;21.14;60.39;96432.28;4991244;28;20399;-71
2022/08/15 06:31:37;;;;;;;5.30;2.25;;;21.70;79.50;;;21.26;59.67;96434.19;4991245;28;20399;-71
2022/08/15 06:34:16;;;;;;;3.25;2.10;;;21.80;78.90;;;21.30;59.52;96427.00;4990578;28;20425;-71
2022/08/15 06:36:51;;;;;;;5.22;2.60;;;21.90;78.60;;;21.31;58.66;96431.25;4991167;28;20465;-71
2022/08/15 06:39:32;;;;;;;3.75;1.90;;;21.90;77.70;;;21.27;58.88;96435.00;4991181;28;20944;-71
2022/08/15 06:42:08;;;;;;;6.32;2.33;;;21.80;77.80;;;21.28;58.83;96442.69;4990842;28;20414;-71
2022/08/15 06:44:34;;;;;;;4.15;2.47;;;21.90;77.90;;;21.29;58.81;96441.56;4990440;28;20741;-71
2022/08/15 06:47:04;;;;;;;4.22;2.67;;;21.90;78.70;;;21.33;58.28;96449.75;4990977;28;20498;-71
2022/08/15 06:49:34;;;;;;;5.10;2.23;;;21.90;77.40;;;21.36;57.83;96449.84;4991017;28;20518;-71
2022/08/15 06:52:01;;;;;;;7.00;2.55;;;21.90;76.60;;;21.32;57.91;96448.19;4990905;28;20828;-71
2022/08/15 06:54:29;;;;;;;6.20;2.45;;;21.90;76.50;;;21.34;57.79;96448.66;4990447;28;20851;-70
2022/08/15 06:57:04;;;;;;;3.60;2.13;;;21.90;76.30;;;21.41;58.06;96456.91;4990959;28;20468;-71
2022/08/15 06:59:40;;;;;;;6.75;2.53;;;21.90;76.80;;;21.40;57.43;96452.66;4990919;28;20407;-71
2022/08/15 07:02:24;;;;;;;5.32;2.40;;;22.00;76.40;;;21.44;57.22;96446.22;4990907;28;20417;-72
2022/08/15 07:05:04;;;;;;;5.70;2.28;;;22.00;75.80;;;21.41;56.94;96446.16;4990459;28;20406;-71
2022/08/15 07:07:40;;;;;;;6.15;2.28;;;22.00;75.50;;;21.22;57.48;96444.84;4990830;28;20457;-71
2022/08/15 07:10:19;;;;;;;3.60;2.22;;;21.80;75.70;;;21.18;58.36;96444.00;4990949;28;20404;-72
2022/08/15 07:12:56;;;;;;;4.10;2.33;;;21.80;76.90;;;21.23;58.15;96451.03;4990424;28;20409;-71
2022/08/15 07:15:37;;;;;;;5.13;2.27;;;21.80;76.90;;;21.24;57.54;96449.91;4990729;28;20490;-72
2022/08/15 07:18:08;;;;;;;5.70;2.60;;;21.80;75.80;;;21.29;57.49;96440.78;4990676;28;20564;-72
2022/08/15 07:23:23;;;;;;;5.13;2.13;;;21.90;76.60;;;21.44;57.26;96445.44;4968125;28;20416;-75
2022/08/15 07:25:53;;;;;;;4.70;2.37;;;22.00;75.90;;;21.42;57.33;96434.25;4971175;28;20404;-75
2022/08/15 07:28:25;;;;;;;5.72;2.17;;;22.00;75.80;;;21.52;57.51;96444.50;4971353;28;20475;-76
2022/08/15 07:30:59;;;;;;;4.30;2.33;;;22.00;76.10;;;21.62;56.49;96431.34;4975952;28;20492;-76
2022/08/15 07:33:34;;;;;;;7.00;2.40;;;22.10;74.90;;;21.89;55.50;96448.56;4993743;28;20501;-75
2022/08/15 07:36:06;;;;;;;3.97;2.50;;;22.40;74.00;;;22.10;54.58;96445.66;4994287;28;20407;-75
2022/08/15 07:38:32;;;;;;;7.90;2.03;;;22.60;73.00;;;22.07;55.14;96435.56;4994509;28;20734;-75
2022/08/15 07:41:21;;;;;;;4.50;1.90;;;22.60;73.10;;;22.21;54.77;96443.22;4994131;28;20403;-75
2022/08/15 07:43:48;;;;;;;5.75;2.58;;;22.70;72.60;;;22.33;54.26;96451.19;4993680;28;20918;-75
2022/08/15 07:46:19;;;;;;;4.75;2.00;;;22.80;72.30;;;22.37;53.73;96446.69;4994163;28;20406;-75
2022/08/15 07:48:59;;;;;;;9.48;2.40;;;22.90;71.40;;;22.36;53.97;96450.50;4976620;28;20660;-75
2022/08/15 07:51:28;;;;;;;3.63;2.00;;;22.90;71.40;;;22.45;54.15;96453.03;4993940;28;20442;-76
2022/08/15 07:54:00;;;;;;;5.15;2.00;;;22.90;71.90;;;22.40;53.64;96462.19;4993367;28;20423;-76
2022/08/15 07:56:30;;;;;;;5.40;2.00;;;22.90;70.80;;;22.37;53.42;96460.16;4976459;28;20484;-75
2022/08/15 07:59:10;;;;;;;4.85;1.80;;;22.90;70.80;;;22.31;53.58;96459.66;4993864;28;20991;-75
2022/08/15 08:01:37;;;;;;;2.35;1.83;;;22.80;70.80;;;22.25;53.88;96461.03;4993813;28;20399;-75
2022/08/15 08:04:09;;;;;;;3.33;1.70;;;22.70;71.20;;;22.30;53.42;96462.69;4993214;28;20824;-76
2022/08/15 08:06:40;;;;;;;2.42;1.65;;;22.80;71.00;;;22.35;53.15;96460.50;4993685;28;20844;-74
2022/08/15 08:09:21;;;;;;;4.20;2.38;;;22.80;70.30;;;22.38;53.34;96464.44;4976118;28;20796;-75
2022/08/15 08:11:54;;;;;;;3.38;1.80;;;22.90;70.70;;;22.66;51.99;96467.00;4993539;28;20402;-75
2022/08/15 08:14:39;;;;;;;3.28;1.88;;;23.10;69.40;;;22.69;52.38;96469.78;4993185;28;20433;-76
2022/08/15 08:17:13;;;;;;;2.83;1.80;;;23.20;69.60;;;22.67;51.31;96468.56;4993771;28;20875;-75
2022/08/15 08:19:55;;;;;;;2.87;1.90;;;23.20;68.10;;;22.53;51.20;96468.25;4993546;28;20503;-75
2022/08/15 08:22:28;;;;;;;3.57;2.00;;;23.00;67.60;;;22.50;51.63;96464.31;4993149;28;20891;-76
2022/08/15 08:25:01;;;;;;;4.15;1.95;;;23.00;68.70;;;22.47;51.97;96459.66;4992973;28;20407;-75
2022/08/15 08:27:44;;;;;;;2.80;1.70;;;23.00;68.90;;;22.56;51.92;96460.22;4993439;28;20414;-76
2022/08/15 08:30:14;;;;;;;2.40;1.73;;;23.10;68.80;;;22.75;50.98;96454.13;4993333;28;20414;-75
2022/08/15 08:32:52;;;;;;;3.10;1.67;;;23.20;67.80;;;22.87;51.50;96450.53;4992852;28;20434;-75
2022/08/15 08:35:33;;;;;;;4.18;1.88;;;23.30;68.10;;;23.17;50.28;96456.94;4975620;28;20781;-75
2022/08/15 08:38:16;;;;;;;5.43;2.35;;;23.60;67.40;;;23.23;50.05;96455.53;4993166;28;20403;-75
2022/08/15 08:43:53;;;;;;;2.53;1.92;;;23.80;66.10;;;23.47;48.24;96468.75;4992719;28;20816;-75
2022/08/15 08:46:41;;;;;;;3.30;1.70;;;23.90;64.40;;;23.53;48.09;96461.94;4993120;28;20538;-76
2022/08/15 08:49:16;;;;;;;3.17;1.70;;;24.00;64.10;;;23.56;48.11;96471.25;4992989;28;20490;-75
2022/08/15 08:51:57;;;;;;;2.83;1.75;;;24.10;64.20;;;23.48;48.32;96469.56;4992765;28;20927;-76
2022/08/15 08:54:33;;;;;;;2.20;1.48;;;24.00;64.00;;;23.46;48.08;96479.91;4992414;28;20979;-75
2022/08/15 08:57:04;;;;;;;5.67;1.80;;;24.00;63.80;;;23.62;46.83;96469.03;4992837;28;20417;-75
2022/08/15 08:59:49;;;;;;;2.35;1.60;;;24.10;62.70;;;23.66;46.50;96489.59;4992868;28;20449;-74
2022/08/15 09:02:22;;;;;;;2.60;1.60;;;24.10;62.60;;;23.53;46.50;96467.34;4975149;28;20411;-76
2022/08/15 09:04:55;;;;;;;2.85;1.90;;;24.00;61.80;;;23.36;47.00;96464.28;4992374;28;20511;-75
2022/08/15 09:07:28;;;;;;;2.20;1.67;;;23.80;62.30;;;23.37;47.27;96471.25;4992680;28;20397;-75
2022/08/15 09:09:57;;;;;;;3.10;1.63;;;23.80;63.10;;;23.74;45.73;96477.00;4992643;28;20430;-75
2022/08/15 09:15:19;;;;;;;5.00;1.80;;;24.10;61.80;;;23.77;46.33;96470.88;4992399;28;20465;-76
2022/08/15 09:17:52;;;;;;;3.78;1.63;;;24.20;62.40;;;23.84;46.76;96465.59;4974942;28;20426;-74
2022/08/15 09:20:24;;;;;;;3.20;1.85;;;24.30;62.00;;;23.98;47.20;96465.09;4992454;28;20773;-74
2022/08/15 09:22:50;;;;;;;5.22;2.13;;;24.40;62.80;;;24.08;47.66;96459.06;4991881;28;20418;-76
2022/08/15 09:25:17;;;;;;;3.63;1.83;;;24.50;63.20;;;24.14;48.20;96463.03;4992278;28;20426;-75
2022/08/15 09:27:52;;;;;;;2.47;1.88;;;24.60;63.80;;;24.18;48.88;96467.38;4992265;28;20417;-75
2022/08/15 09:30:20;;;;;;;6.30;2.30;;;24.60;64.40;;;24.20;48.69;96464.34;4992164;28;20407;-75
2022/08/15 09:33:05;;;;;;;3.50;1.98;;;24.70;64.40;;;24.25;48.63;96464.81;4991478;28;20954;-75
2022/08/15 09:35:49;;;;;;;3.63;1.95;;;24.80;64.40;;;24.43;47.75;96461.63;4992040;28;20426;-75
2022/08/15 09:38:40;;;;;;;3.35;1.90;;;24.80;63.50;;;24.58;48.18;96457.97;4992058;28;20438;-75
2022/08/15 09:41:51;;;;;;;4.25;2.00;;;25.00;63.90;;;24.79;47.47;96446.69;4991864;28;20898;-75
2022/08/15 09:44:49;;;;;;;3.45;1.70;;;25.20;63.00;;;24.99;46.18;96448.13;4991469;28;20449;-75
2022/08/15 09:47:39;;;;;;;2.60;1.75;;;25.40;61.70;;;25.30;46.71;96450.47;4991830;28;20730;-75
2022/08/15 09:50:30;;;;;;;4.63;1.92;;;25.60;62.00;;;25.32;43.74;96442.75;4991821;28;20406;-74
2022/08/15 09:53:08;;;;;;;2.45;1.75;;;25.80;58.80;;;25.42;44.89;96446.72;4973014;28;20677;-75
2022/08/15 09:55:47;;;;;;;3.50;1.80;;;25.80;60.00;;;25.48;44.15;96449.91;4991517;28;20922;-75
2022/08/15 09:58:22;;;;;;;5.18;1.60;;;25.90;59.30;;;25.34;44.21;96445.84;4991629;28;20434;-75
2022/08/15 10:01:03;;;;;;;2.35;1.58;;;25.80;59.10;;;25.26;43.51;96454.28;4991469;28;20402;-75
2022/08/15 10:03:58;;;;;;;3.70;1.50;;;25.70;58.40;;;25.30;42.34;96433.44;4991063;28;20477;-75
2022/08/15 10:06:27;;;;;;;5.30;1.92;;;25.70;57.20;;;25.39;42.21;96428.50;4991535;28;20399;-74
2022/08/15 10:09:33;;;;;;;2.57;1.80;;;25.80;57.60;;;25.47;42.24;96429.38;4990267;28;20442;-75
2022/08/15 10:12:21;;;;;;;3.05;1.83;;;25.90;57.20;;;25.58;43.26;96431.06;4989122;28;20422;-75
2022/08/15 10:15:03;;;;;;;7.72;2.22;;;26.00;58.00;;;25.79;44.27;96435.91;4973448;28;20511;-75
2022/08/15 10:17:44;;;;;;;7.47;2.13;;;26.10;59.10;;;26.07;42.25;96438.91;4973904;28;20815;-75
2022/08/15 10:20:58;;;;;;;3.08;2.10;;;26.30;57.90;;;26.10;43.23;96434.66;4991375;28;20776;-74
2022/08/15 10:23:31;;;;;;;3.33;1.90;;;26.50;58.30;;;26.36;43.07;96431.03;4990895;28;20427;-75
2022/08/15 10:26:24;;;;;;;5.30;1.95;;;26.70;58.30;;;26.67;42.34;96440.53;4991353;28;20395;-75
2022/08/15 10:29:09;;;;;;;4.43;2.05;;;27.10;57.10;;;26.56;41.39;96435.81;4991288;28;20418;-74
2022/08/15 10:31:50;;;;;;;3.55;2.00;;;27.00;55.90;;;26.33;41.82;96431.75;4991070;28;20402;-75
2022/08/15 10:34:35;;;;;;;3.83;2.00;;;26.80;56.40;;;26.34;42.99;96427.91;4990633;28;20517;-74
2022/08/15 10:37:22;;;;;;;4.38;1.77;;;26.80;58.20;;;26.92;41.22;96420.53;4991186;28;20757;-74
2022/08/15 10:40:34;;;;;;;3.20;2.00;;;27.50;56.10;;;27.76;39.79;96413.09;4990889;28;20414;-74
2022/08/15 10:43:39;;;;;;;3.00;1.90;;;28.30;55.20;;;28.24;37.22;96413.56;4955486;28;20516;-74
2022/08/15 10:46:22;;;;;;;3.15;1.88;;;28.80;52.00;;;28.53;36.83;96421.69;4960749;28;20426;-75
2022/08/15 10:49:13;;;;;;;3.00;1.83;;;29.00;51.30;;;28.65;36.61;96410.38;4991050;28;20730;-75
2022/08/15 10:52:04;;;;;;;1.95;1.58;;;29.30;51.10;;;28.93;34.52;96409.56;4990962;28;20406;-75
2022/08/15 10:55:06;;;;;;;4.90;1.70;;;29.60;48.90;;;28.76;32.43;96420.13;4990480;28;20425;-74
2022/08/15 10:57:41;;;;;;;3.63;1.80;;;29.50;46.40;;;28.34;34.16;96410.03;4973533;28;20465;-75